King Hakan — V7WI2 — position and weather

sailwx.info

Track history (hours):
 
Tides and Currents Weather Stations Pressure Air Temp Water Temp Dewpoint Dewpoint Depression Visibility Wind Speed Wind Dir Waves Ship Positions

King Hakan

Last reported at 2015-Feb-11 07:06 UTC. Time now 2015-Feb-28 02:02 UTC.
Position N 46°13' W 124°23'.
Warning: this ship's position is 16 days out of date.

Length 229 m; draft 13.1 m.

Type: Cargo ship. MMSI: 538090439.

Date/timePositionNaut miles runAvg speedWind from/ knotsBaromVisibWave heightAir tempDewpointWater temp
2015-Feb-11 07:06N 46°13' W 124°23'610.9
2015-Feb-11 06:31N 46°12' W 124°14'1010.0
2015-Feb-11 05:33N 46°15' W 124°01'9 9.3
2015-Feb-11 04:34N 46°12' W 123°49'1111.5
2015-Feb-11 03:33N 46°15' W 123°33'27 2.4
2015-Feb-10 16:31N 46°06' W 122°56'0 0.0
2015-Feb-10 15:31N 46°06' W 122°56'0 0.0
2015-Feb-10 14:16N 46°06' W 122°56'0 0.0
2015-Feb-10 13:28N 46°06' W 122°56'  
2015-Feb-04 23:06N 46°14' W 123°26'5 9.6
2015-Feb-04 22:33N 46°15' W 123°33'1111.5
2015-Feb-04 21:33N 46°12' W 123°49'1111.4
2015-Feb-04 20:34N 46°15' W 124°05'1711.5
2015-Feb-04 19:04N 46°12' W 124°29'  
Track history (hours):
 
Tides and Currents Weather Stations Pressure Air Temp Water Temp Dewpoint Dewpoint Depression Visibility Wind Speed Wind Dir Waves Ship Positions

King Hakan

Last reported at 2015-Feb-11 07:06 UTC. Time now 2015-Feb-28 02:02 UTC.
Position N 46°13' W 124°23'.
Warning: this ship's position is 16 days out of date.

Length 229 m; draft 13.1 m.

Type: Cargo ship. MMSI: 538090439.

Date/timePositionNaut miles runAvg speedWind from/ knotsBaromVisibWave heightAir tempDewpointWater temp
2015-Feb-11 07:06N 46°13' W 124°23'610.9
2015-Feb-11 06:31N 46°12' W 124°14'1010.0
2015-Feb-11 05:33N 46°15' W 124°01'9 9.3
2015-Feb-11 04:34N 46°12' W 123°49'1111.5
2015-Feb-11 03:33N 46°15' W 123°33'27 2.4
2015-Feb-10 16:31N 46°06' W 122°56'0 0.0
2015-Feb-10 15:31N 46°06' W 122°56'0 0.0
2015-Feb-10 14:16N 46°06' W 122°56'0 0.0
2015-Feb-10 13:28N 46°06' W 122°56'  
2015-Feb-04 23:06N 46°14' W 123°26'5 9.6
2015-Feb-04 22:33N 46°15' W 123°33'1111.5
2015-Feb-04 21:33N 46°12' W 123°49'1111.4
2015-Feb-04 20:34N 46°15' W 124°05'1711.5
2015-Feb-04 19:04N 46°12' W 124°29'  

Dump ship's entire track history